Time;durP1;ratioP1;P1;durP2;ratioP2;P2;SDS_P1;SDS_P2;PMS_P1;PMS_P2;Temp;Humidity;BMP_temperature;BMP_pressure;BME280_temperature;BME280_humidity;BME280_pressure;Samples;Min_cycle;Max_cycle;Signal;HPM_P1;HPM_P2
2021/08/05 00:01:48;;;;;;;3.57;2.60;;;16.10;99.90;;;;;;5113102;28;20439;-67
2021/08/05 00:04:15;;;;;;;3.30;2.43;;;16.10;99.90;;;;;;5122946;27;20491;-67
2021/08/05 00:06:42;;;;;;;5.00;2.70;;;16.10;99.90;;;;;;5132548;27;20480;-67
2021/08/05 00:09:11;;;;;;;3.57;2.20;;;16.10;99.90;;;;;;5124396;27;20434;-67
2021/08/05 00:11:38;;;;;;;4.00;3.30;;;16.10;99.90;;;;;;5109984;28;20495;-67
2021/08/05 00:14:26;;;;;;;4.30;2.77;;;16.10;99.90;;;;;;5103167;28;20442;-67
2021/08/05 00:17:01;;;;;;;5.30;2.57;;;16.10;99.90;;;;;;5111453;28;20430;-67
2021/08/05 00:19:29;;;;;;;5.93;2.87;;;16.10;99.90;;;;;;5112057;28;20911;-67
2021/08/05 00:21:56;;;;;;;4.63;2.77;;;16.10;99.90;;;;;;5111866;28;20585;-67
2021/08/05 00:24:25;;;;;;;3.33;2.73;;;16.10;99.90;;;;;;5122265;28;20433;-67
2021/08/05 00:26:52;;;;;;;6.33;3.47;;;16.10;99.90;;;;;;5132239;28;20516;-67
2021/08/05 00:29:20;;;;;;;4.53;3.10;;;16.10;99.90;;;;;;5113107;28;20446;-67
2021/08/05 00:31:47;;;;;;;6.00;2.83;;;16.10;99.90;;;;;;5112133;28;20442;-67
2021/08/05 00:34:22;;;;;;;4.60;3.50;;;16.10;99.90;;;;;;5119302;28;20474;-68
2021/08/05 00:36:50;;;;;;;4.40;3.10;;;16.10;99.90;;;;;;5111936;28;20935;-68
2021/08/05 00:39:17;;;;;;;4.03;3.00;;;16.10;99.90;;;;;;5128774;28;20776;-67
2021/08/05 00:41:50;;;;;;;3.80;3.00;;;16.10;99.90;;;;;;5132323;28;20464;-67
2021/08/05 00:44:17;;;;;;;3.80;2.83;;;16.10;99.90;;;;;;5124010;28;20448;-69
2021/08/05 00:46:45;;;;;;;4.10;3.17;;;16.10;99.90;;;;;;5132081;28;20483;-68
2021/08/05 00:49:12;;;;;;;5.30;3.23;;;16.10;99.90;;;;;;5116011;28;20433;-68
2021/08/05 00:51:40;;;;;;;4.70;3.70;;;16.10;99.90;;;;;;5111706;28;20515;-67
2021/08/05 00:54:09;;;;;;;3.83;2.93;;;16.10;99.90;;;;;;5112544;28;20509;-67
2021/08/05 00:56:37;;;;;;;5.73;3.20;;;16.00;99.90;;;;;;5111520;28;20469;-67
2021/08/05 00:59:06;;;;;;;4.27;2.70;;;16.00;99.90;;;;;;5124312;28;20800;-68
2021/08/05 01:01:38;;;;;;;4.40;3.20;;;16.00;99.90;;;;;;5131726;28;20965;-67
2021/08/05 01:04:08;;;;;;;5.93;2.90;;;16.00;99.90;;;;;;5118771;28;21268;-67
2021/08/05 01:06:44;;;;;;;5.47;3.37;;;16.00;99.90;;;;;;5111367;28;20477;-67
2021/08/05 01:09:23;;;;;;;4.20;3.00;;;16.00;99.90;;;;;;5123960;28;20447;-67
2021/08/05 01:11:56;;;;;;;4.93;3.20;;;16.00;99.90;;;;;;5131882;28;20832;-68
2021/08/05 01:14:29;;;;;;;7.23;3.50;;;16.00;99.90;;;;;;5116360;28;20921;-67
2021/08/05 01:16:57;;;;;;;6.07;3.67;;;16.00;99.90;;;;;;5111633;28;20503;-67
2021/08/05 01:19:35;;;;;;;5.23;3.90;;;16.10;99.90;;;;;;5129156;27;20461;-67
2021/08/05 01:22:14;;;;;;;6.27;3.50;;;16.00;99.90;;;;;;5135379;27;20437;-67
2021/08/05 01:24:50;;;;;;;6.73;3.90;;;16.10;99.90;;;;;;5117708;27;20451;-67
2021/08/05 01:27:21;;;;;;;4.10;2.80;;;16.10;99.90;;;;;;5114704;28;20473;-68
2021/08/05 01:29:49;;;;;;;5.13;3.23;;;16.10;99.90;;;;;;5118399;27;20472;-67
2021/08/05 01:32:17;;;;;;;4.13;2.83;;;16.10;99.90;;;;;;5115302;27;20438;-67
2021/08/05 01:34:45;;;;;;;4.10;2.63;;;16.10;99.90;;;;;;5133008;27;20494;-67
2021/08/05 01:37:12;;;;;;;5.23;2.97;;;16.10;99.90;;;;;;5129564;27;20441;-67
2021/08/05 01:39:41;;;;;;;3.87;3.10;;;16.10;99.90;;;;;;5115724;28;20438;-67
2021/08/05 01:42:09;;;;;;;5.17;3.30;;;16.10;99.90;;;;;;5120569;27;20444;-67
2021/08/05 01:44:38;;;;;;;5.13;3.73;;;16.10;99.90;;;;;;5119773;27;20430;-67
2021/08/05 01:47:07;;;;;;;3.90;3.00;;;16.10;99.90;;;;;;5116203;27;20986;-68
2021/08/05 01:49:36;;;;;;;5.00;2.50;;;16.10;99.90;;;;;;5115495;28;20502;-67
2021/08/05 01:52:03;;;;;;;3.13;2.10;;;16.10;99.90;;;;;;5134100;27;20465;-67
2021/08/05 01:54:31;;;;;;;3.30;2.30;;;16.10;99.90;;;;;;5120065;27;20517;-67
2021/08/05 01:56:58;;;;;;;3.70;2.30;;;16.10;99.90;;;;;;5115304;28;20495;-67
2021/08/05 01:59:25;;;;;;;5.43;3.00;;;16.10;99.90;;;;;;5128621;27;20446;-67
2021/08/05 02:01:53;;;;;;;2.83;1.90;;;16.10;99.90;;;;;;5135660;27;20827;-67
2021/08/05 02:04:31;;;;;;;3.40;2.10;;;16.10;99.90;;;;;;5121668;27;20467;-67
2021/08/05 02:07:06;;;;;;;3.47;2.40;;;16.10;99.90;;;;;;5115038;28;20513;-67
2021/08/05 02:09:41;;;;;;;3.33;1.87;;;16.10;99.90;;;;;;5129664;27;20444;-67
2021/08/05 02:12:08;;;;;;;3.57;2.13;;;16.10;99.90;;;;;;5135628;27;20589;-67
2021/08/05 02:14:36;;;;;;;3.00;1.93;;;16.10;99.90;;;;;;5133370;27;20874;-67
2021/08/05 02:17:08;;;;;;;3.10;2.10;;;16.10;99.90;;;;;;5135389;27;20466;-67
2021/08/05 02:19:36;;;;;;;5.20;2.53;;;16.10;99.90;;;;;;5120538;27;20442;-67
2021/08/05 02:22:05;;;;;;;3.10;2.10;;;16.10;99.90;;;;;;5114699;28;20430;-67
2021/08/05 02:24:33;;;;;;;3.63;2.23;;;16.10;99.90;;;;;;5127816;27;20441;-68
2021/08/05 02:27:01;;;;;;;3.00;1.97;;;16.00;99.90;;;;;;5133716;27;20516;-67
2021/08/05 02:29:31;;;;;;;3.20;2.00;;;16.00;99.90;;;;;;5113680;28;20503;-68
2021/08/05 02:31:59;;;;;;;3.90;1.90;;;16.00;99.90;;;;;;5122405;27;20864;-67
2021/08/05 02:34:30;;;;;;;4.23;1.80;;;16.00;99.90;;;;;;5121666;27;21009;-67
2021/08/05 02:37:02;;;;;;;2.90;1.73;;;16.00;99.90;;;;;;5121582;27;20464;-67
2021/08/05 02:39:29;;;;;;;3.13;1.80;;;16.00;99.90;;;;;;5134881;27;20510;-68
2021/08/05 02:41:57;;;;;;;2.90;1.97;;;16.00;99.90;;;;;;5127619;27;20963;-67
2021/08/05 02:44:25;;;;;;;2.70;1.40;;;16.00;99.90;;;;;;5125806;27;20923;-67
2021/08/05 02:46:53;;;;;;;2.17;1.10;;;15.90;99.90;;;;;;5127640;27;20526;-67
2021/08/05 02:49:20;;;;;;;2.30;1.10;;;15.90;99.90;;;;;;5114139;27;20474;-68
2021/08/05 02:51:49;;;;;;;2.40;1.50;;;15.90;99.90;;;;;;5118681;27;20955;-67
2021/08/05 02:54:17;;;;;;;3.57;1.33;;;15.90;99.90;;;;;;5123612;27;20466;-67
2021/08/05 02:56:45;;;;;;;1.70;0.93;;;15.90;99.90;;;;;;5117957;27;20441;-67
2021/08/05 02:59:12;;;;;;;1.90;0.90;;;15.90;99.90;;;;;;5134551;27;20428;-67
2021/08/05 03:01:41;;;;;;;2.20;1.00;;;15.90;99.90;;;;;;5131316;27;20429;-67
2021/08/05 03:04:09;;;;;;;2.83;0.90;;;15.90;99.90;;;;;;5122965;27;20752;-67
2021/08/05 03:06:37;;;;;;;2.10;1.20;;;15.80;99.90;;;;;;5118385;27;21047;-67
2021/08/05 03:09:06;;;;;;;1.93;0.90;;;15.80;99.90;;;;;;5113804;28;20445;-67
2021/08/05 03:11:33;;;;;;;6.20;1.70;;;15.80;99.90;;;;;;5127729;27;20498;-68
2021/08/05 03:14:00;;;;;;;2.97;0.80;;;15.80;99.90;;;;;;5126073;27;20503;-67
2021/08/05 03:16:28;;;;;;;1.97;0.80;;;15.80;99.90;;;;;;5113618;28;20469;-67
2021/08/05 03:18:55;;;;;;;1.80;0.90;;;15.80;99.90;;;;;;5119644;27;20509;-67
2021/08/05 03:21:22;;;;;;;1.90;0.83;;;15.80;99.90;;;;;;5134251;27;20433;-67
2021/08/05 03:23:49;;;;;;;1.90;1.30;;;15.80;99.90;;;;;;5127937;27;20441;-67
2021/08/05 03:26:18;;;;;;;1.80;0.90;;;15.80;99.90;;;;;;5113622;28;20932;-67
2021/08/05 03:28:45;;;;;;;2.10;1.10;;;15.80;99.90;;;;;;5114506;27;20473;-67
2021/08/05 03:31:12;;;;;;;1.97;0.77;;;15.80;99.90;;;;;;5113424;28;20908;-67
2021/08/05 03:33:39;;;;;;;2.27;1.00;;;15.80;99.90;;;;;;5119273;27;20487;-67
2021/08/05 03:36:06;;;;;;;2.00;0.93;;;15.80;99.90;;;;;;5134019;27;20433;-67
2021/08/05 03:38:33;;;;;;;5.90;0.93;;;15.80;99.90;;;;;;5128631;27;20959;-68
2021/08/05 03:41:03;;;;;;;3.00;0.97;;;15.80;99.90;;;;;;5112927;28;20434;-67
2021/08/05 03:43:31;;;;;;;2.97;1.20;;;15.80;99.90;;;;;;5117584;27;20432;-67
2021/08/05 03:45:58;;;;;;;2.43;1.03;;;15.80;99.90;;;;;;5133668;27;20758;-67
2021/08/05 03:48:26;;;;;;;2.70;1.47;;;15.80;99.90;;;;;;5129609;27;20530;-67
2021/08/05 03:50:53;;;;;;;1.80;1.00;;;15.70;99.90;;;;;;5113283;28;20433;-67
2021/08/05 03:53:22;;;;;;;3.70;1.30;;;15.70;99.90;;;;;;5115413;27;20434;-68
2021/08/05 03:55:51;;;;;;;1.83;1.17;;;15.70;99.90;;;;;;5121420;27;20438;-68
2021/08/05 03:58:18;;;;;;;6.00;1.27;;;15.70;99.90;;;;;;5113907;28;20487;-67
2021/08/05 04:00:49;;;;;;;1.80;1.00;;;15.70;99.90;;;;;;5113177;28;20446;-68
2021/08/05 04:03:16;;;;;;;1.67;0.80;;;15.70;99.90;;;;;;5123644;27;20530;-67
2021/08/05 04:05:43;;;;;;;2.00;1.17;;;15.60;99.90;;;;;;5134009;27;20490;-68
2021/08/05 04:08:10;;;;;;;2.00;1.03;;;15.70;99.90;;;;;;5123088;27;20550;-67
2021/08/05 04:10:37;;;;;;;2.20;1.20;;;15.70;99.90;;;;;;5113262;28;20465;-67
2021/08/05 04:13:04;;;;;;;1.80;0.90;;;15.70;99.90;;;;;;5121613;27;20465;-67
2021/08/05 04:15:32;;;;;;;1.77;1.00;;;15.60;99.90;;;;;;5133755;27;20442;-67
2021/08/05 04:18:00;;;;;;;1.80;0.90;;;15.60;99.90;;;;;;5124903;28;20434;-67
2021/08/05 04:20:27;;;;;;;3.20;1.70;;;15.60;99.90;;;;;;5113191;28;20460;-67
2021/08/05 04:22:54;;;;;;;1.90;1.13;;;15.60;99.90;;;;;;5120706;28;20492;-67
2021/08/05 04:25:22;;;;;;;3.07;1.20;;;15.60;99.90;;;;;;5133474;28;20433;-68
2021/08/05 04:27:49;;;;;;;2.73;1.27;;;15.60;99.90;;;;;;5126356;28;20549;-67
2021/08/05 04:30:16;;;;;;;2.20;1.27;;;15.60;99.90;;;;;;5112963;28;20434;-67
2021/08/05 04:32:45;;;;;;;3.20;1.20;;;15.60;99.90;;;;;;5117592;28;20536;-67
2021/08/05 04:35:14;;;;;;;2.00;1.00;;;15.60;99.90;;;;;;5133530;28;20437;-67
2021/08/05 04:37:51;;;;;;;2.30;1.37;;;15.60;99.90;;;;;;5131589;28;20437;-68
2021/08/05 04:40:18;;;;;;;3.40;2.07;;;15.60;99.90;;;;;;5133626;28;20433;-67
2021/08/05 04:42:46;;;;;;;2.10;1.23;;;15.60;99.90;;;;;;5128305;28;20470;-68
2021/08/05 04:45:13;;;;;;;2.00;0.90;;;15.60;99.90;;;;;;5113028;28;20763;-67
2021/08/05 04:47:54;;;;;;;3.27;1.30;;;15.60;99.90;;;;;;5113808;28;20468;-67
2021/08/05 04:50:24;;;;;;;9.10;5.30;;;15.60;99.90;;;;;;5112955;28;20434;-67
2021/08/05 04:52:51;;;;;;;9.30;4.33;;;15.60;99.90;;;;;;5119129;27;20466;-67
2021/08/05 04:55:18;;;;;;;19.53;13.70;;;15.60;99.90;;;;;;5137401;27;20947;-69
2021/08/05 04:57:51;;;;;;;49.83;31.30;;;15.50;99.90;;;;;;5135336;27;20426;-67
2021/08/05 05:00:22;;;;;;;36.50;22.00;;;15.40;99.90;;;;;;5137383;27;20946;-67
2021/08/05 05:02:50;;;;;;;30.47;19.93;;;15.50;99.90;;;;;;5133196;27;20462;-67
2021/08/05 05:05:17;;;;;;;25.67;16.67;;;15.50;99.90;;;;;;5116627;28;20521;-67
2021/08/05 05:07:46;;;;;;;34.67;23.30;;;15.40;99.90;;;;;;5117142;27;20895;-67
2021/08/05 05:10:14;;;;;;;15.80;9.40;;;15.40;99.90;;;;;;5117398;27;20438;-68
2021/08/05 05:12:42;;;;;;;23.57;14.90;;;15.30;99.90;;;;;;5116240;28;20499;-67
2021/08/05 05:15:10;;;;;;;7.50;3.97;;;15.30;99.90;;;;;;5113109;27;20477;-68
2021/08/05 05:17:43;;;;;;;7.63;5.40;;;15.30;99.90;;;;;;5095633;28;20978;-67
2021/08/05 05:20:13;;;;;;;3.37;2.30;;;15.20;99.90;;;;;;5095782;27;20819;-68
2021/08/05 05:22:41;;;;;;;3.17;2.20;;;15.20;99.90;;;;;;5112910;28;20466;-67
2021/08/05 05:25:13;;;;;;;2.80;2.00;;;15.10;99.90;;;;;;5100534;28;20949;-67
2021/08/05 05:27:43;;;;;;;3.40;1.93;;;15.20;99.90;;;;;;5116154;27;20493;-67
2021/08/05 05:30:14;;;;;;;3.70;2.43;;;15.20;99.90;;;;;;5113422;28;20488;-69
2021/08/05 05:32:43;;;;;;;3.73;2.60;;;15.20;99.90;;;;;;5117768;27;20461;-68
2021/08/05 05:35:12;;;;;;;3.10;2.00;;;15.30;99.90;;;;;;5113564;28;20446;-67
2021/08/05 05:37:40;;;;;;;2.13;1.27;;;15.30;99.90;;;;;;5113644;28;20430;-67
2021/08/05 05:40:10;;;;;;;4.30;1.70;;;15.30;99.90;;;;;;5099389;28;20450;-67
2021/08/05 05:42:43;;;;;;;2.60;1.80;;;15.40;99.90;;;;;;5112697;28;20503;-67
2021/08/05 05:45:12;;;;;;;2.57;1.57;;;15.40;99.90;;;;;;5113027;28;20438;-69
2021/08/05 05:47:40;;;;;;;1.77;1.07;;;15.40;99.90;;;;;;5116103;27;20477;-67
2021/08/05 05:50:09;;;;;;;1.73;0.93;;;15.40;99.90;;;;;;5113273;28;20989;-67
2021/08/05 05:52:37;;;;;;;2.10;1.20;;;15.30;99.90;;;;;;5112938;28;20519;-68
2021/08/05 05:55:05;;;;;;;6.17;2.20;;;15.20;99.90;;;;;;5112684;27;20955;-68
2021/08/05 05:57:33;;;;;;;3.27;1.80;;;15.20;99.90;;;;;;5112623;27;20452;-67
2021/08/05 06:00:01;;;;;;;2.17;0.90;;;15.10;99.90;;;;;;5115978;27;20441;-67
2021/08/05 06:02:30;;;;;;;2.10;1.23;;;15.10;99.90;;;;;;5114031;27;20483;-70
2021/08/05 06:04:57;;;;;;;3.00;1.60;;;15.10;99.90;;;;;;5103095;28;20434;-72
2021/08/05 06:07:26;;;;;;;2.20;1.30;;;15.20;99.90;;;;;;5112278;28;20541;-67
2021/08/05 06:09:53;;;;;;;2.27;1.27;;;15.20;99.90;;;;;;5110525;27;20842;-67
2021/08/05 06:12:20;;;;;;;1.90;1.00;;;15.10;99.90;;;;;;5093937;28;20439;-68
2021/08/05 06:14:48;;;;;;;2.57;1.20;;;15.10;99.90;;;;;;5101777;28;20771;-68
2021/08/05 06:17:15;;;;;;;3.40;1.47;;;15.10;99.90;;;;;;5112940;27;20444;-67
2021/08/05 06:19:44;;;;;;;2.00;1.10;;;15.00;99.90;;;;;;5112342;28;20521;-67
2021/08/05 06:22:11;;;;;;;3.90;1.60;;;15.10;99.90;;;;;;5112689;28;21590;-68
2021/08/05 06:24:38;;;;;;;4.83;2.50;;;15.10;99.90;;;;;;5112839;28;20443;-68
2021/08/05 06:27:06;;;;;;;5.73;3.93;;;15.10;99.90;;;;;;5112613;28;20440;-67
2021/08/05 06:29:33;;;;;;;8.13;4.70;;;15.20;99.90;;;;;;5112035;28;20434;-68
2021/08/05 06:32:02;;;;;;;6.50;4.33;;;15.20;99.90;;;;;;5113647;27;20493;-70
2021/08/05 06:34:34;;;;;;;4.93;3.67;;;15.30;99.90;;;;;;5120552;27;20501;-67
2021/08/05 06:37:03;;;;;;;3.93;2.60;;;15.30;99.90;;;;;;5132854;27;20434;-67
2021/08/05 06:39:38;;;;;;;3.73;2.07;;;15.40;99.90;;;;;;5135451;27;20998;-67
2021/08/05 06:42:06;;;;;;;4.83;2.80;;;15.50;99.90;;;;;;5114674;27;20441;-67
2021/08/05 06:44:37;;;;;;;4.40;2.37;;;15.60;99.90;;;;;;5111787;27;20528;-68
2021/08/05 06:47:06;;;;;;;4.77;2.30;;;15.60;99.90;;;;;;5111581;28;20430;-68
2021/08/05 06:49:34;;;;;;;4.07;2.97;;;15.70;99.90;;;;;;5113993;27;20482;-68
2021/08/05 06:52:01;;;;;;;2.70;1.40;;;15.70;99.90;;;;;;5120454;27;20434;-67
2021/08/05 06:54:28;;;;;;;2.40;1.57;;;15.60;99.90;;;;;;5115140;28;20533;-67
2021/08/05 06:56:55;;;;;;;2.30;1.77;;;15.60;99.90;;;;;;5115170;28;20469;-67
2021/08/05 06:59:22;;;;;;;1.70;1.10;;;15.60;99.90;;;;;;5124896;27;20534;-68
2021/08/05 07:01:49;;;;;;;2.83;1.83;;;15.60;99.90;;;;;;5115592;27;20441;-69
2021/08/05 07:04:17;;;;;;;2.90;1.70;;;15.70;99.90;;;;;;5114784;28;20429;-67
2021/08/05 07:06:44;;;;;;;6.93;3.90;;;15.80;99.90;;;;;;5115005;28;20461;-67
2021/08/05 07:09:11;;;;;;;5.53;2.33;;;15.80;99.90;;;;;;5114745;28;20561;-69
2021/08/05 07:11:38;;;;;;;23.10;16.40;;;15.90;99.90;;;;;;5114750;28;20524;-67
2021/08/05 07:14:05;;;;;;;16.30;13.53;;;15.90;99.90;;;;;;5114734;28;20434;-67
2021/08/05 07:16:32;;;;;;;11.73;9.77;;;15.90;99.90;;;;;;5113867;28;20442;-68
2021/08/05 07:18:59;;;;;;;7.03;6.20;;;15.90;99.90;;;;;;5114527;28;20848;-67
2021/08/05 07:21:27;;;;;;;6.40;4.00;;;15.90;99.90;;;;;;5114222;28;20885;-67
2021/08/05 07:23:54;;;;;;;5.40;3.90;;;15.90;99.90;;;;;;5114497;28;20440;-67
2021/08/05 07:26:21;;;;;;;4.70;2.30;;;15.80;99.90;;;;;;5114386;28;20516;-67
2021/08/05 07:28:48;;;;;;;4.57;2.10;;;15.80;99.90;;;;;;5114115;28;20481;-67
2021/08/05 07:31:15;;;;;;;2.60;1.70;;;15.80;99.90;;;;;;5114563;28;20785;-67
2021/08/05 07:33:42;;;;;;;4.57;2.00;;;15.80;99.90;;;;;;5114074;28;20466;-68
2021/08/05 07:36:09;;;;;;;18.90;12.50;;;15.80;99.90;;;;;;5114476;28;20921;-67
2021/08/05 07:38:37;;;;;;;13.60;10.70;;;15.80;99.90;;;;;;5114309;28;20521;-67
2021/08/05 07:41:04;;;;;;;11.40;8.20;;;16.00;99.90;;;;;;5114261;28;20445;-67
2021/08/05 07:43:31;;;;;;;5.33;4.13;;;16.10;99.90;;;;;;5114127;28;20477;-67
2021/08/05 07:45:58;;;;;;;33.73;24.77;;;16.20;99.90;;;;;;5114247;28;20444;-67
2021/08/05 07:48:25;;;;;;;9.33;6.70;;;16.20;99.60;;;;;;5113984;28;20564;-67
2021/08/05 07:50:52;;;;;;;5.20;1.90;;;16.20;99.80;;;;;;5114034;28;20939;-67
2021/08/05 07:53:19;;;;;;;2.90;2.27;;;16.20;99.80;;;;;;5114065;28;20490;-67
2021/08/05 07:55:47;;;;;;;5.37;3.00;;;16.30;99.90;;;;;;5113973;28;20524;-68
2021/08/05 07:58:14;;;;;;;8.17;5.50;;;16.40;99.50;;;;;;5113832;28;20517;-68
2021/08/05 08:00:41;;;;;;;3.27;2.53;;;16.50;98.80;;;;;;5113862;28;20881;-67
2021/08/05 08:03:11;;;;;;;2.33;1.40;;;16.50;99.30;;;;;;5113943;28;20462;-67
2021/08/05 08:05:39;;;;;;;6.80;1.87;;;16.60;99.60;;;;;;5113968;28;21007;-68
2021/08/05 08:08:07;;;;;;;3.60;2.87;;;16.70;99.60;;;;;;5113937;28;20478;-67
2021/08/05 08:10:34;;;;;;;4.30;3.10;;;16.80;99.10;;;;;;5113646;28;20871;-67
2021/08/05 08:13:02;;;;;;;5.77;3.90;;;16.80;98.80;;;;;;5113684;28;20525;-69
2021/08/05 08:15:33;;;;;;;2.73;1.97;;;16.80;98.40;;;;;;5113677;28;20518;-67
2021/08/05 08:18:00;;;;;;;5.63;2.90;;;16.80;98.50;;;;;;5113548;28;20987;-69
2021/08/05 08:20:27;;;;;;;4.70;3.03;;;16.90;98.90;;;;;;5113769;28;20526;-67
2021/08/05 08:22:54;;;;;;;5.20;3.27;;;16.90;98.30;;;;;;5113429;28;20448;-67
2021/08/05 08:25:21;;;;;;;9.97;6.40;;;17.00;98.20;;;;;;5113741;28;20525;-67
2021/08/05 08:27:48;;;;;;;8.83;5.90;;;17.00;98.10;;;;;;5115485;28;20529;-67
2021/08/05 08:30:16;;;;;;;6.77;4.40;;;17.00;98.70;;;;;;5117991;28;20444;-70
2021/08/05 08:32:46;;;;;;;4.53;2.80;;;17.10;98.60;;;;;;5117545;28;20457;-67
2021/08/05 08:35:14;;;;;;;7.70;4.80;;;17.10;97.80;;;;;;5117927;28;20442;-67
2021/08/05 08:37:41;;;;;;;4.10;2.53;;;17.20;98.00;;;;;;5117892;28;20438;-68
2021/08/05 08:40:09;;;;;;;8.30;5.27;;;17.30;98.30;;;;;;5117578;28;20915;-67
2021/08/05 08:42:36;;;;;;;9.20;5.00;;;17.50;98.70;;;;;;5117692;28;20430;-67
2021/08/05 08:45:04;;;;;;;4.87;3.50;;;17.70;97.60;;;;;;5117692;28;20521;-67
2021/08/05 08:47:34;;;;;;;3.53;2.30;;;17.80;97.10;;;;;;5117650;28;21000;-67
2021/08/05 08:50:02;;;;;;;3.00;1.67;;;17.90;97.80;;;;;;5117826;28;20478;-67
2021/08/05 08:52:32;;;;;;;5.93;2.00;;;17.90;97.80;;;;;;5117353;28;20856;-67
2021/08/05 08:55:01;;;;;;;4.00;1.60;;;17.90;97.10;;;;;;5117477;28;20451;-67
2021/08/05 08:57:31;;;;;;;3.10;1.53;;;18.00;97.10;;;;;;5117452;28;20441;-67
2021/08/05 08:59:58;;;;;;;4.03;2.43;;;18.20;97.70;;;;;;5117491;28;20516;-67
2021/08/05 09:02:26;;;;;;;2.60;1.73;;;18.60;97.80;;;;;;5117070;28;20469;-68
2021/08/05 09:04:55;;;;;;;2.80;1.40;;;19.00;97.60;;;;;;5117232;28;20442;-67
2021/08/05 09:07:23;;;;;;;3.70;2.77;;;19.40;97.40;;;;;;5117359;28;20502;-67
2021/08/05 09:09:50;;;;;;;5.07;3.63;;;19.70;96.60;;;;;;5117037;28;21008;-67
2021/08/05 09:12:17;;;;;;;8.20;3.73;;;20.00;95.30;;;;;;5117287;28;20461;-68
2021/08/05 09:14:46;;;;;;;4.80;1.60;;;20.40;94.70;;;;;;5117158;28;20795;-68
2021/08/05 09:17:21;;;;;;;2.07;1.37;;;20.90;93.90;;;;;;5117025;28;20505;-68
2021/08/05 09:19:50;;;;;;;3.73;1.50;;;21.50;92.90;;;;;;5117027;28;20472;-67
2021/08/05 09:22:35;;;;;;;4.00;1.77;;;22.10;93.70;;;;;;5117129;28;20773;-68
2021/08/05 09:25:24;;;;;;;3.53;1.27;;;22.60;91.70;;;;;;5115170;28;20438;-68
2021/08/05 09:27:52;;;;;;;2.10;1.20;;;23.10;90.10;;;;;;5116848;28;20485;-68
2021/08/05 09:30:34;;;;;;;2.70;1.60;;;23.50;91.10;;;;;;5116270;28;20477;-68
2021/08/05 09:33:09;;;;;;;4.17;1.10;;;23.80;86.90;;;;;;5116362;28;20564;-68
2021/08/05 09:35:37;;;;;;;2.13;1.20;;;24.00;88.60;;;;;;5116515;28;20521;-68
2021/08/05 09:38:27;;;;;;;2.40;1.20;;;24.30;87.80;;;;;;5116054;28;20529;-68
2021/08/05 09:41:07;;;;;;;2.90;0.90;;;24.60;86.20;;;;;;5116524;28;20979;-67
2021/08/05 09:43:35;;;;;;;3.00;1.50;;;24.80;83.90;;;;;;5116401;28;20434;-67
2021/08/05 09:46:02;;;;;;;3.53;1.70;;;24.90;78.80;;;;;;5116445;28;20441;-68
2021/08/05 09:48:41;;;;;;;2.67;1.70;;;24.80;78.50;;;;;;5116423;28;20638;-67
2021/08/05 09:51:17;;;;;;;3.30;1.40;;;24.90;77.70;;;;;;5116576;28;20433;-68
2021/08/05 09:54:00;;;;;;;1.97;0.90;;;25.20;77.00;;;;;;5116440;28;20463;-68
2021/08/05 09:56:28;;;;;;;2.40;1.23;;;25.50;78.30;;;;;;5116344;28;20425;-68
2021/08/05 09:59:05;;;;;;;2.43;1.20;;;25.50;63.90;;;;;;5116091;28;20477;-67
2021/08/05 10:01:32;;;;;;;2.73;1.27;;;25.40;63.90;;;;;;5116299;28;20435;-67
2021/08/05 10:03:59;;;;;;;2.47;1.30;;;25.20;65.80;;;;;;5116107;28;20526;-68
2021/08/05 10:06:26;;;;;;;2.70;1.17;;;25.30;70.40;;;;;;5116055;28;20528;-68
2021/08/05 10:08:53;;;;;;;4.20;1.30;;;25.50;70.30;;;;;;5116035;28;20571;-68
2021/08/05 10:11:37;;;;;;;2.80;1.50;;;25.60;70.90;;;;;;5116116;28;20440;-68
2021/08/05 10:14:20;;;;;;;3.23;1.67;;;25.60;65.90;;;;;;5116077;28;20449;-67
2021/08/05 10:16:49;;;;;;;5.77;1.93;;;25.30;63.70;;;;;;5116040;28;20840;-67
2021/08/05 10:19:19;;;;;;;3.33;2.10;;;25.00;65.70;;;;;;5115854;28;20793;-69
2021/08/05 10:21:50;;;;;;;2.90;1.70;;;24.70;68.40;;;;;;5115768;28;20430;-67
2021/08/05 10:24:17;;;;;;;2.73;1.50;;;24.30;66.10;;;;;;5115765;28;20986;-67
2021/08/05 10:26:46;;;;;;;2.67;1.53;;;24.00;67.40;;;;;;5115615;28;20466;-68
2021/08/05 10:29:16;;;;;;;5.80;1.80;;;23.80;65.80;;;;;;5115714;28;20482;-67
2021/08/05 10:31:45;;;;;;;4.90;2.10;;;23.80;64.80;;;;;;5115708;28;20895;-67
2021/08/05 10:34:13;;;;;;;4.73;2.07;;;23.50;65.10;;;;;;5115195;28;20492;-68
2021/08/05 10:36:40;;;;;;;3.00;1.40;;;23.40;67.50;;;;;;5115585;28;20449;-67
2021/08/05 10:39:07;;;;;;;3.70;1.70;;;23.20;66.70;;;;;;5115452;28;20438;-67
2021/08/05 10:41:34;;;;;;;3.67;1.77;;;23.00;69.10;;;;;;5115244;28;20487;-67
2021/08/05 10:44:04;;;;;;;2.80;1.47;;;23.00;71.50;;;;;;5115338;28;20438;-67
2021/08/05 10:46:34;;;;;;;2.43;1.30;;;22.90;71.50;;;;;;5115313;28;20477;-67
2021/08/05 10:49:02;;;;;;;2.50;1.60;;;22.90;69.10;;;;;;5115020;28;20485;-67
2021/08/05 10:51:33;;;;;;;2.67;1.27;;;23.10;70.30;;;;;;5114378;28;20495;-68
2021/08/05 10:54:00;;;;;;;3.27;1.60;;;23.40;70.70;;;;;;5115219;28;20539;-67
2021/08/05 10:56:29;;;;;;;2.57;1.27;;;23.70;73.90;;;;;;5115011;28;20504;-67
2021/08/05 10:59:12;;;;;;;3.40;2.10;;;24.00;72.40;;;;;;5114948;28;20813;-67
2021/08/05 11:01:47;;;;;;;2.00;1.03;;;24.20;71.20;;;;;;5115010;28;20506;-68
2021/08/05 11:04:50;;;;;;;3.73;1.80;;;24.20;69.00;;;;;;5115787;27;20524;-67
2021/08/05 11:07:28;;;;;;;2.50;1.50;;;24.30;69.60;;;;;;5114806;28;20471;-67
2021/08/05 11:10:24;;;;;;;2.50;1.50;;;24.20;67.80;;;;;;5114749;27;20561;-68
2021/08/05 11:12:56;;;;;;;2.83;1.53;;;24.30;65.80;;;;;;5094333;28;20933;-68
2021/08/05 11:15:47;;;;;;;2.40;1.20;;;24.50;63.60;;;;;;5111657;27;20439;-68
2021/08/05 11:18:21;;;;;;;2.50;1.40;;;24.80;64.20;;;;;;5114808;28;20767;-67
2021/08/05 11:21:28;;;;;;;4.27;1.57;;;25.10;63.90;;;;;;5115337;27;20519;-68
2021/08/05 11:23:56;;;;;;;1.87;1.17;;;25.20;62.60;;;;;;5134557;27;20438;-67
2021/08/05 11:26:24;;;;;;;2.30;1.00;;;25.20;60.90;;;;;;5135105;27;20439;-67
2021/08/05 11:28:54;;;;;;;3.90;1.80;;;25.10;61.20;;;;;;5134870;27;20431;-67
2021/08/05 11:31:31;;;;;;;2.30;1.30;;;25.10;62.20;;;;;;5135073;27;20439;-68
2021/08/05 11:33:59;;;;;;;9.13;1.93;;;25.10;63.90;;;;;;5123728;27;20468;-67
2021/08/05 11:36:33;;;;;;;4.23;1.40;;;25.00;64.00;;;;;;5125243;27;20438;-67
2021/08/05 11:39:06;;;;;;;2.80;1.43;;;24.80;60.20;;;;;;5113224;28;20983;-67
2021/08/05 11:42:03;;;;;;;4.47;1.60;;;24.50;58.90;;;;;;5119886;27;20467;-69
2021/08/05 11:44:40;;;;;;;2.40;1.20;;;24.20;61.60;;;;;;5134816;27;20433;-67
2021/08/05 11:47:28;;;;;;;1.97;1.10;;;23.80;61.30;;;;;;5132185;27;20442;-67
2021/08/05 11:49:58;;;;;;;2.30;1.40;;;23.50;63.20;;;;;;5121647;27;20493;-67
2021/08/05 11:52:35;;;;;;;2.40;1.30;;;23.30;64.70;;;;;;5114048;28;20431;-67
2021/08/05 11:55:06;;;;;;;2.50;1.60;;;23.00;65.00;;;;;;5114033;28;20837;-67
2021/08/05 11:57:38;;;;;;;2.27;1.40;;;22.90;66.20;;;;;;5113938;28;20439;-67
2021/08/05 12:00:17;;;;;;;3.40;1.60;;;22.70;68.60;;;;;;5113986;28;20837;-67
2021/08/05 12:02:45;;;;;;;3.30;1.77;;;22.50;73.40;;;;;;5114014;28;20835;-67
2021/08/05 12:05:14;;;;;;;3.60;1.37;;;22.30;76.30;;;;;;5113949;28;20481;-68
2021/08/05 12:07:48;;;;;;;3.50;1.50;;;22.30;74.60;;;;;;5113955;28;20473;-68
2021/08/05 12:10:16;;;;;;;2.90;1.10;;;22.40;77.70;;;;;;5113753;28;20538;-68
2021/08/05 12:12:49;;;;;;;2.40;1.27;;;22.60;71.90;;;;;;5113738;28;20525;-68
2021/08/05 12:15:18;;;;;;;1.90;0.90;;;22.80;74.60;;;;;;5113800;28;20430;-68
2021/08/05 12:17:48;;;;;;;4.73;1.27;;;22.90;73.80;;;;;;5113909;28;20516;-67
2021/08/05 12:20:19;;;;;;;2.47;1.10;;;22.80;73.40;;;;;;5113724;28;20434;-67
2021/08/05 12:22:49;;;;;;;2.37;1.20;;;22.70;73.10;;;;;;5113651;28;20442;-67
2021/08/05 12:25:31;;;;;;;2.13;1.50;;;22.60;72.20;;;;;;5113792;28;20521;-71
2021/08/05 12:28:03;;;;;;;2.13;1.00;;;22.70;74.90;;;;;;5113637;28;20458;-67
2021/08/05 12:30:39;;;;;;;2.10;1.27;;;22.90;71.30;;;;;;5113397;28;20581;-67
2021/08/05 12:33:13;;;;;;;2.10;0.90;;;23.00;73.50;;;;;;5113541;28;20894;-67
2021/08/05 12:35:41;;;;;;;2.30;1.20;;;23.20;72.40;;;;;;5113686;28;20438;-67
2021/08/05 12:38:13;;;;;;;2.23;1.13;;;23.30;71.30;;;;;;5113902;28;20517;-67
2021/08/05 12:40:44;;;;;;;2.80;1.63;;;23.50;73.60;;;;;;5113533;28;20524;-67
2021/08/05 12:43:13;;;;;;;1.73;0.93;;;23.80;72.30;;;;;;5113493;28;20434;-68
2021/08/05 12:45:43;;;;;;;3.90;1.30;;;24.00;75.20;;;;;;5113634;28;20457;-67
2021/08/05 12:48:11;;;;;;;3.63;1.63;;;24.00;74.20;;;;;;5113412;28;20495;-67
2021/08/05 12:50:41;;;;;;;2.43;1.20;;;24.00;70.70;;;;;;5113628;28;20565;-67
2021/08/05 12:53:10;;;;;;;3.00;1.07;;;23.80;69.90;;;;;;5113514;28;20517;-67
2021/08/05 12:55:51;;;;;;;2.43;1.57;;;23.60;69.50;;;;;;5113495;28;20438;-67
2021/08/05 12:58:20;;;;;;;4.30;1.30;;;23.50;70.90;;;;;;5113320;28;20433;-68
2021/08/05 13:00:47;;;;;;;1.90;0.90;;;23.50;73.70;;;;;;5113516;28;20455;-70